M I D A S
Marine Information and Data Acquisition System
Tripno 1787 of the Zeeleeuw from 2009-10-05 06:36:28 to 2009-10-06 10:47:42
Back to CruiseResearch ActivitiesStationsMapUnderway DataData graphs

EquipmentUnitsComment
TimeDGPSUTC
LatitudeDGPSDM.mWGS84
LongitudeDGPSDM.mWGS84
HeadingGyrodeg 
SOGDGPSknotsSpeed over ground
COGDGPSdegCourse over ground
DepthEcho soundermeters200 kHz
Missing or incorrect values are displayed as -999
Navigation data collected by the RV Zeeleeuw from 2009-10-05 07:25:32 to 2009-10-06 12:07:42
                                                                                    Next 1000 lines
Time Latitude Longitude Heading SOG COG Depth
2009-10-05 07:25:50 51°13.662 2°55.958 131.5   264 -999
2009-10-05 07:26:00 51°13.663 2°55.959 124.9   102 -999
2009-10-05 07:26:10 51°13.662 2°55.959 124.9   102 -999
2009-10-05 07:26:20 51°13.662 2°55.959 124.9   102 -999
2009-10-05 07:26:30 51°13.662 2°55.959 124.9   102 -999
2009-10-05 07:26:40 51°13.662 2°55.959 124.9   102 -999
2009-10-05 07:26:50 51°13.662 2°55.959 124.9   102 -999
2009-10-05 07:27:00 51°13.662 2°55.958 113.9 0.5 292 -999
2009-10-05 07:27:10 51°13.663 2°55.954 113.9 0.5 292 -999
2009-10-05 07:27:20 51°13.664 2°55.949 113.9 0.5 292 -999
2009-10-05 07:27:30 51°13.666 2°55.942 113.9 0.5 292 -999
2009-10-05 07:27:40 51°13.668 2°55.933 113.9 0.5 292 -999
2009-10-05 07:27:50 51°13.671 2°55.922 113.9 0.5 292 -999
2009-10-05 07:28:00 51°13.673 2°55.909 103.5 3 284 -999
2009-10-05 07:28:10 51°13.675 2°55.895 103.5 3 284 -999
2009-10-05 07:28:20 51°13.677 2°55.879 103.5 3 284 -999
2009-10-05 07:28:30 51°13.678 2°55.863 103.5 3 284 -999
2009-10-05 07:28:40 51°13.68 2°55.848 103.5 3 284 -999
2009-10-05 07:28:50 51°13.681 2°55.833 103.5 3 284 -999
2009-10-05 07:29:00 51°13.682 2°55.819 93.4 3.2 276 -999
2009-10-05 07:29:10 51°13.682 2°55.806 93.4 3.2 276 -999
2009-10-05 07:29:20 51°13.683 2°55.794 93.4 3.2 276 -999
2009-10-05 07:29:30 51°13.683 2°55.784 93.4 3.2 276 -999
2009-10-05 07:29:40 51°13.683 2°55.775 93.4 3.2 276 -999
2009-10-05 07:29:50 51°13.683 2°55.767 93.4 3.2 276 -999
2009-10-05 07:30:00 51°13.684 2°55.763 79 0.8 283 -999
2009-10-05 07:30:10 51°13.684 2°55.762 79 0.8 283 -999
2009-10-05 07:30:20 51°13.684 2°55.759 79 0.8 283 -999
2009-10-05 07:30:30 51°13.684 2°55.756 79 0.8 283 -999
2009-10-05 07:30:40 51°13.682 2°55.751 79 0.8 283 -999
2009-10-05 07:30:50 51°13.681 2°55.748 79 0.8 283 -999
2009-10-05 07:31:00 51°13.681 2°55.746 40.7 0.4 329 -999
2009-10-05 07:31:10 51°13.684 2°55.746 40.7 0.4 329 -999
2009-10-05 07:31:20 51°13.69 2°55.747 40.7 0.4 329 -999
2009-10-05 07:31:30 51°13.698 2°55.746 40.7 0.4 329 -999
2009-10-05 07:31:40 51°13.709 2°55.739 40.7 0.4 329 -999
2009-10-05 07:31:50 51°13.721 2°55.73 40.7 0.4 329 -999
2009-10-05 07:32:00 51°13.735 2°55.717 333 5.79 332 -999
2009-10-05 07:32:10 51°13.749 2°55.704 333 5.79 332 -999
2009-10-05 07:32:20 51°13.765 2°55.689 333 5.79 332 -999
2009-10-05 07:32:30 51°13.782 2°55.674 333 5.79 332 -999
2009-10-05 07:32:40 51°13.8 2°55.66 333 5.79 332 -999
2009-10-05 07:32:50 51°13.818 2°55.645 333 5.79 332 -999
2009-10-05 07:33:00 51°13.836 2°55.63 334.6 7.5 334 -999
2009-10-05 07:33:10 51°13.855 2°55.615 334.6 7.5 334 -999
2009-10-05 07:33:20 51°13.874 2°55.6 334.6 7.5 334 -999
2009-10-05 07:33:30 51°13.893 2°55.585 334.6 7.5 334 -999
2009-10-05 07:33:40 51°13.913 2°55.569 334.6 7.5 334 -999
2009-10-05 07:33:50 51°13.932 2°55.553 334.6 7.5 334 -999
2009-10-05 07:34:00 51°13.951 2°55.538 335.1 7.79 333 -999
2009-10-05 07:34:10 51°13.97 2°55.523 335.1 7.79 333 -999
2009-10-05 07:34:20 51°13.988 2°55.509 335.1 7.79 333 -999
2009-10-05 07:34:30 51°14.006 2°55.495 335.1 7.79 333 -999
2009-10-05 07:34:40 51°14.023 2°55.482 335.1 7.79 333 -999
2009-10-05 07:34:50 51°14.039 2°55.47 335.1 7.79 333 -999
2009-10-05 07:35:00 51°14.055 2°55.458 336.6 6.4 337 -999
2009-10-05 07:35:10 51°14.072 2°55.447 336.6 6.4 337 -999
2009-10-05 07:35:20 51°14.088 2°55.436 336.6 6.4 337 -999
2009-10-05 07:35:30 51°14.103 2°55.425 336.6 6.4 337 -999
2009-10-05 07:35:40 51°14.119 2°55.414 336.6 6.4 337 -999
2009-10-05 07:35:50 51°14.134 2°55.402 336.6 6.4 337 -999
2009-10-05 07:36:00 51°14.148 2°55.39 335.3 5.79 332 -999
2009-10-05 07:36:10 51°14.162 2°55.377 335.3 5.79 332 -999
2009-10-05 07:36:20 51°14.175 2°55.364 335.3 5.79 332 -999
2009-10-05 07:36:30 51°14.189 2°55.35 335.3 5.79 332 -999
2009-10-05 07:36:40 51°14.202 2°55.334 335.3 5.79 332 -999
2009-10-05 07:36:50 51°14.216 2°55.317 335.3 5.79 332 -999
2009-10-05 07:37:00 51°14.229 2°55.298 321.8 6.59 317 -999
2009-10-05 07:37:10 51°14.243 2°55.276 321.8 6.59 317 -999
2009-10-05 07:37:20 51°14.257 2°55.252 321.8 6.59 317 -999
2009-10-05 07:37:30 51°14.271 2°55.227 321.8 6.59 317 -999
2009-10-05 07:37:40 51°14.286 2°55.202 321.8 6.59 317 -999
2009-10-05 07:37:50 51°14.301 2°55.176 321.8 6.59 317 -999
2009-10-05 07:38:00 51°14.315 2°55.149 313.3 8.09 311 -999
2009-10-05 07:38:10 51°14.33 2°55.121 313.3 8.09 311 -999
2009-10-05 07:38:20 51°14.345 2°55.092 313.3 8.09 311 -999
2009-10-05 07:38:30 51°14.36 2°55.061 313.3 8.09 311 -999
2009-10-05 07:38:40 51°14.376 2°55.028 313.3 8.09 311 -999
2009-10-05 07:38:50 51°14.393 2°54.996 313.3 8.09 311 -999
2009-10-05 07:39:00 51°14.412 2°54.966 315.6 9.59 319 -999
2009-10-05 07:39:10 51°14.433 2°54.94 315.6 9.59 319 -999
2009-10-05 07:39:20 51°14.456 2°54.915 315.6 9.59 319 -999
2009-10-05 07:39:30 51°14.479 2°54.889 315.6 9.59 319 -999
2009-10-05 07:39:40 51°14.502 2°54.863 315.6 9.59 319 -999
2009-10-05 07:39:50 51°14.525 2°54.834 315.6 9.59 319 -999
2009-10-05 07:40:00 51°14.548 2°54.806 330.1 10.5 323 -999
2009-10-05 07:40:10 51°14.572 2°54.778 330.1 10.5 323 -999
2009-10-05 07:40:20 51°14.596 2°54.75 330.1 10.5 323 -999
2009-10-05 07:40:30 51°14.62 2°54.722 330.1 10.5 323 -999
2009-10-05 07:40:40 51°14.645 2°54.693 330.1 10.5 323 -999
2009-10-05 07:40:50 51°14.669 2°54.664 330.1 10.5 323 -999
2009-10-05 07:41:00 51°14.694 2°54.635 331 11.09 323 -999
2009-10-05 07:41:10 51°14.718 2°54.605 331 11.09 323 -999
2009-10-05 07:41:20 51°14.743 2°54.575 331 11.09 323 -999
2009-10-05 07:41:30 51°14.768 2°54.546 331 11.09 323 -999
2009-10-05 07:41:40 51°14.793 2°54.516 331 11.09 323 -999
2009-10-05 07:41:50 51°14.818 2°54.486 331 11.09 323 -999
2009-10-05 07:42:00 51°14.843 2°54.456 331 11.19 323 -999
2009-10-05 07:42:10 51°14.868 2°54.427 331 11.19 323 -999
2009-10-05 07:42:20 51°14.893 2°54.397 331 11.19 323 -999
2009-10-05 07:42:30 51°14.918 2°54.368 331 11.19 323 -999
2009-10-05 07:42:40 51°14.942 2°54.339 331 11.19 323 -999
2009-10-05 07:42:50 51°14.967 2°54.31 331 11.19 323 -999
2009-10-05 07:43:00 51°14.991 2°54.281 331.1 11 324 -999
2009-10-05 07:43:10 51°15.016 2°54.253 331.1 11 324 -999
2009-10-05 07:43:20 51°15.04 2°54.225 331.1 11 324 -999
2009-10-05 07:43:30 51°15.065 2°54.196 331.1 11 324 -999
2009-10-05 07:43:40 51°15.089 2°54.168 331.1 11 324 -999
2009-10-05 07:43:50 51°15.114 2°54.139 331.1 11 324 -999
2009-10-05 07:44:00 51°15.138 2°54.109 331.1 11 323 -999
2009-10-05 07:44:10 51°15.162 2°54.08 331.1 11 323 -999
2009-10-05 07:44:20 51°15.186 2°54.05 331.1 11 323 -999
2009-10-05 07:44:30 51°15.211 2°54.021 331.1 11 323 -999
2009-10-05 07:44:40 51°15.235 2°53.992 331.1 11 323 -999
2009-10-05 07:44:50 51°15.26 2°53.963 331.1 11 323 -999
2009-10-05 07:45:00 51°15.284 2°53.934 331.8 11 324 -999
2009-10-05 07:45:10 51°15.309 2°53.905 331.8 11 324 -999
2009-10-05 07:45:20 51°15.333 2°53.876 331.8 11 324 -999
2009-10-05 07:45:30 51°15.358 2°53.847 331.8 11 324 -999
2009-10-05 07:45:40 51°15.382 2°53.817 331.8 11 324 -999
2009-10-05 07:45:50 51°15.407 2°53.787 331.8 11 324 -999
2009-10-05 07:46:00 51°15.431 2°53.756 332.1 11.19 321 -999
2009-10-05 07:46:10 51°15.456 2°53.726 332.1 11.19 321 -999
2009-10-05 07:46:20 51°15.48 2°53.696 332.1 11.19 321 -999
2009-10-05 07:46:30 51°15.504 2°53.665 332.1 11.19 321 -999
2009-10-05 07:46:40 51°15.528 2°53.635 332.1 11.19 321 -999
2009-10-05 07:46:50 51°15.553 2°53.605 332.1 11.19 321 -999
2009-10-05 07:47:00 51°15.578 2°53.576 333.1 11.19 323 -999
2009-10-05 07:47:10 51°15.603 2°53.548 333.1 11.19 323 -999
2009-10-05 07:47:20 51°15.628 2°53.521 333.1 11.19 323 -999
2009-10-05 07:47:30 51°15.654 2°53.494 333.1 11.19 323 -999
2009-10-05 07:47:40 51°15.68 2°53.468 333.1 11.19 323 -999
2009-10-05 07:47:50 51°15.705 2°53.441 333.1 11.19 323 -999
2009-10-05 07:48:00 51°15.732 2°53.416 337.3 11 328 -999
2009-10-05 07:48:10 51°15.758 2°53.39 337.3 11 328 -999
2009-10-05 07:48:20 51°15.784 2°53.364 337.3 11 328 -999
2009-10-05 07:48:30 51°15.81 2°53.338 337.3 11 328 -999
2009-10-05 07:48:40 51°15.835 2°53.312 337.3 11 328 -999
2009-10-05 07:48:50 51°15.861 2°53.286 337.3 11 328 -999
2009-10-05 07:49:00 51°15.887 2°53.26 336.6 11.09 328 -999
2009-10-05 07:49:10 51°15.913 2°53.234 336.6 11.09 328 -999
2009-10-05 07:49:20 51°15.939 2°53.208 336.6 11.09 328 -999
2009-10-05 07:49:30 51°15.966 2°53.184 336.6 11.09 328 -999
2009-10-05 07:49:40 51°15.993 2°53.161 336.6 11.09 328 -999
2009-10-05 07:49:50 51°16.019 2°53.138 336.6 11.09 328 -999
2009-10-05 07:50:00 51°16.046 2°53.115 342.3 10.9 332 -999
2009-10-05 07:50:10 51°16.072 2°53.094 342.3 10.9 332 -999
2009-10-05 07:50:20 51°16.099 2°53.072 342.3 10.9 332 -999
2009-10-05 07:50:30 51°16.125 2°53.051 342.3 10.9 332 -999
2009-10-05 07:50:40 51°16.152 2°53.03 342.3 10.9 332 -999
2009-10-05 07:50:50 51°16.179 2°53.01 342.3 10.9 332 -999
2009-10-05 07:51:00 51°16.207 2°52.991 343.6 10.69 335 -999
2009-10-05 07:51:10 51°16.234 2°52.971 343.6 10.69 335 -999
2009-10-05 07:51:20 51°16.262 2°52.951 343.6 10.69 335 -999
2009-10-05 07:51:30 51°16.289 2°52.931 343.6 10.69 335 -999
2009-10-05 07:51:40 51°16.316 2°52.911 343.6 10.69 335 -999
2009-10-05 07:51:50 51°16.343 2°52.891 343.6 10.69 335 -999
2009-10-05 07:52:00 51°16.371 2°52.871 342.6 10.8 336 -999
2009-10-05 07:52:10 51°16.398 2°52.851 342.6 10.8 336 -999
2009-10-05 07:52:20 51°16.425 2°52.831 342.6 10.8 336 -999
2009-10-05 07:52:30 51°16.452 2°52.811 342.6 10.8 336 -999
2009-10-05 07:52:40 51°16.479 2°52.791 342.6 10.8 336 -999
2009-10-05 07:52:50 51°16.507 2°52.772 342.6 10.8 336 -999
2009-10-05 07:53:00 51°16.534 2°52.752 342.1 10.8 336 -999
2009-10-05 07:53:10 51°16.561 2°52.733 342.1 10.8 336 -999
2009-10-05 07:53:20 51°16.588 2°52.712 342.1 10.8 336 -999
2009-10-05 07:53:30 51°16.615 2°52.693 342.1 10.8 336 -999
2009-10-05 07:53:40 51°16.643 2°52.674 342.1 10.8 336 -999
2009-10-05 07:53:50 51°16.669 2°52.654 342.1 10.8 336 -999
2009-10-05 07:54:00 51°16.696 2°52.634 342.1 10.59 335 -999
2009-10-05 07:54:10 51°16.723 2°52.614 342.1 10.59 335 -999
2009-10-05 07:54:20 51°16.749 2°52.595 342.1 10.59 335 -999
2009-10-05 07:54:30 51°16.775 2°52.575 342.1 10.59 335 -999
2009-10-05 07:54:40 51°16.801 2°52.556 342.1 10.59 335 -999
2009-10-05 07:54:50 51°16.827 2°52.538 342.1 10.59 335 -999
2009-10-05 07:55:00 51°16.854 2°52.52 345 10.3 340 -999
2009-10-05 07:55:10 51°16.881 2°52.505 345 10.3 340 -999
2009-10-05 07:55:20 51°16.908 2°52.49 345 10.3 340 -999
2009-10-05 07:55:30 51°16.935 2°52.475 345 10.3 340 -999
2009-10-05 07:55:40 51°16.962 2°52.461 345 10.3 340 -999
2009-10-05 07:55:50 51°16.988 2°52.447 345 10.3 340 -999
2009-10-05 07:56:00 51°17.015 2°52.433 349.3 10.19 342 -999
2009-10-05 07:56:10 51°17.042 2°52.418 349.3 10.19 342 -999
2009-10-05 07:56:20 51°17.07 2°52.404 349.3 10.19 342 -999
2009-10-05 07:56:30 51°17.097 2°52.391 349.3 10.19 342 -999
2009-10-05 07:56:40 51°17.124 2°52.38 349.3 10.19 342 -999
2009-10-05 07:56:50 51°17.151 2°52.369 349.3 10.19 342 -999
2009-10-05 07:57:00 51°17.179 2°52.359 353.6 10.09 348 -999
2009-10-05 07:57:10 51°17.206 2°52.349 353.6 10.09 348 -999
2009-10-05 07:57:20 51°17.234 2°52.34 353.6 10.09 348 -999
2009-10-05 07:57:30 51°17.262 2°52.33 353.6 10.09 348 -999
2009-10-05 07:57:40 51°17.289 2°52.321 353.6 10.09 348 -999
2009-10-05 07:57:50 51°17.317 2°52.312 353.6 10.09 348 -999
2009-10-05 07:58:00 51°17.344 2°52.302 355.6 10.19 349 -999
2009-10-05 07:58:10 51°17.372 2°52.294 355.6 10.19 349 -999
2009-10-05 07:58:20 51°17.4 2°52.286 355.6 10.19 349 -999
2009-10-05 07:58:30 51°17.428 2°52.279 355.6 10.19 349 -999
2009-10-05 07:58:40 51°17.456 2°52.271 355.6 10.19 349 -999
2009-10-05 07:58:50 51°17.483 2°52.264 355.6 10.19 349 -999
2009-10-05 07:59:00 51°17.511 2°52.257 358.3 10.19 351 -999
2009-10-05 07:59:10 51°17.539 2°52.25 358.3 10.19 351 -999
2009-10-05 07:59:20 51°17.567 2°52.242 358.3 10.19 351 -999
2009-10-05 07:59:30 51°17.595 2°52.235 358.3 10.19 351 -999
2009-10-05 07:59:40 51°17.623 2°52.228 358.3 10.19 351 -999
2009-10-05 07:59:50 51°17.651 2°52.221 358.3 10.19 351 -999
2009-10-05 08:00:00 51°17.679 2°52.213 357.8 10.19 350 -999
2009-10-05 08:00:10 51°17.707 2°52.206 357.8 10.19 350 -999
2009-10-05 08:00:20 51°17.735 2°52.198 357.8 10.19 350 -999
2009-10-05 08:00:30 51°17.763 2°52.19 357.8 10.19 350 -999
2009-10-05 08:00:40 51°17.791 2°52.182 357.8 10.19 350 -999
2009-10-05 08:00:50 51°17.818 2°52.175 357.8 10.19 350 -999
2009-10-05 08:01:00 51°17.846 2°52.167 357.6 10.19 350 -999
2009-10-05 08:01:10 51°17.874 2°52.161 357.6 10.19 350 -999
2009-10-05 08:01:20 51°17.902 2°52.153 357.6 10.19 350 -999
2009-10-05 08:01:30 51°17.93 2°52.145 357.6 10.19 350 -999
2009-10-05 08:01:40 51°17.958 2°52.137 357.6 10.19 350 -999
2009-10-05 08:01:50 51°17.986 2°52.129 357.6 10.19 350 -999
2009-10-05 08:02:00 51°18.014 2°52.122 357.8 10.3 349 -999
2009-10-05 08:02:10 51°18.042 2°52.114 357.8 10.3 349 -999
2009-10-05 08:02:20 51°18.07 2°52.107 357.8 10.3 349 -999
2009-10-05 08:02:30 51°18.098 2°52.102 357.8 10.3 349 -999
2009-10-05 08:02:40 51°18.126 2°52.097 357.8 10.3 349 -999
2009-10-05 08:02:50 51°18.154 2°52.088 357.8 10.3 349 -999
2009-10-05 08:03:00 51°18.182 2°52.081 357.1 10.19 350 -999
2009-10-05 08:03:10 51°18.21 2°52.076 357.1 10.19 350 -999
2009-10-05 08:03:20 51°18.238 2°52.073 357.1 10.19 350 -999
2009-10-05 08:03:30 51°18.266 2°52.073 357.1 10.19 350 -999
2009-10-05 08:03:40 51°18.293 2°52.073 357.1 10.19 350 -999
2009-10-05 08:03:50 51°18.321 2°52.076 357.1 10.19 350 -999
2009-10-05 08:04:00 51°18.349 2°52.078 10.1 10 5 -999
2009-10-05 08:04:10 51°18.377 2°52.081 10.1 10 5 -999
2009-10-05 08:04:20 51°18.404 2°52.085 10.1 10 5 -999
2009-10-05 08:04:30 51°18.432 2°52.088 10.1 10 5 -999
2009-10-05 08:04:40 51°18.46 2°52.091 10.1 10 5 -999
2009-10-05 08:04:50 51°18.487 2°52.094 10.1 10 5 -999
2009-10-05 08:05:00 51°18.515 2°52.098 11.6 10.09 5 -999
2009-10-05 08:05:10 51°18.543 2°52.101 11.6 10.09 5 -999
2009-10-05 08:05:20 51°18.571 2°52.104 11.6 10.09 5 -999
2009-10-05 08:05:30 51°18.599 2°52.107 11.6 10.09 5 -999
2009-10-05 08:05:40 51°18.626 2°52.11 11.6 10.09 5 -999
2009-10-05 08:05:50 51°18.654 2°52.113 11.6 10.09 5 -999
2009-10-05 08:06:00 51°18.682 2°52.115 10.4 10.09 4 -999
2009-10-05 08:06:10 51°18.71 2°52.117 10.4 10.09 4 -999
2009-10-05 08:06:20 51°18.738 2°52.12 10.4 10.09 4 -999
2009-10-05 08:06:30 51°18.766 2°52.121 10.4 10.09 4 -999
2009-10-05 08:06:40 51°18.795 2°52.119 10.4 10.09 4 -999
2009-10-05 08:06:50 51°18.823 2°52.115 10.4 10.09 4 -999
2009-10-05 08:07:00 51°18.851 2°52.11 4 10.3 354 -999
2009-10-05 08:07:10 51°18.88 2°52.104 4 10.3 354 -999
2009-10-05 08:07:20 51°18.908 2°52.098 4 10.3 354 -999
2009-10-05 08:07:30 51°18.937 2°52.093 4 10.3 354 -999
2009-10-05 08:07:40 51°18.965 2°52.086 4 10.3 354 -999
2009-10-05 08:07:50 51°18.994 2°52.079 4 10.3 354 -999
2009-10-05 08:08:00 51°19.022 2°52.072 0.5 10.4 351 -999
2009-10-05 08:08:10 51°19.051 2°52.065 0.5 10.4 351 -999
2009-10-05 08:08:20 51°19.079 2°52.058 0.5 10.4 351 -999
2009-10-05 08:08:30 51°19.108 2°52.051 0.5 10.4 351 -999
2009-10-05 08:08:40 51°19.136 2°52.044 0.5 10.4 351 -999
2009-10-05 08:08:50 51°19.165 2°52.037 0.5 10.4 351 -999
2009-10-05 08:09:00 51°19.194 2°52.03 0.8 10.4 351 -999
2009-10-05 08:09:10 51°19.222 2°52.021 0.8 10.4 351 -999
2009-10-05 08:09:20 51°19.25 2°52.014 0.8 10.4 351 -999
2009-10-05 08:09:30 51°19.279 2°52.006 0.8 10.4 351 -999
2009-10-05 08:09:40 51°19.307 2°51.998 0.8 10.4 351 -999
2009-10-05 08:09:50 51°19.336 2°51.99 0.8 10.4 351 -999
2009-10-05 08:10:00 51°19.364 2°51.983 0.5 10.4 351 -999
2009-10-05 08:10:10 51°19.393 2°51.976 0.5 10.4 351 -999
2009-10-05 08:10:20 51°19.421 2°51.967 0.5 10.4 351 -999
2009-10-05 08:10:30 51°19.449 2°51.955 0.5 10.4 351 -999
2009-10-05 08:10:40 51°19.477 2°51.941 0.5 10.4 351 -999
2009-10-05 08:10:50 51°19.505 2°51.926 0.5 10.4 351 -999
2009-10-05 08:11:00 51°19.533 2°51.909 351.3 10.69 339 -999
2009-10-05 08:11:10 51°19.561 2°51.893 351.3 10.69 339 -999
2009-10-05 08:11:20 51°19.589 2°51.876 351.3 10.69 339 -999
2009-10-05 08:11:30 51°19.617 2°51.858 351.3 10.69 339 -999
2009-10-05 08:11:40 51°19.645 2°51.841 351.3 10.69 339 -999
2009-10-05 08:11:50 51°19.673 2°51.824 351.3 10.69 339 -999
2009-10-05 08:12:00 51°19.701 2°51.805 348.3 10.9 338 -999
2009-10-05 08:12:10 51°19.729 2°51.787 348.3 10.9 338 -999
2009-10-05 08:12:20 51°19.757 2°51.767 348.3 10.9 338 -999
2009-10-05 08:12:30 51°19.784 2°51.748 348.3 10.9 338 -999
2009-10-05 08:12:40 51°19.812 2°51.73 348.3 10.9 338 -999
2009-10-05 08:12:50 51°19.84 2°51.711 348.3 10.9 338 -999
2009-10-05 08:13:00 51°19.867 2°51.693 348.6 10.69 337 -999
2009-10-05 08:13:10 51°19.895 2°51.674 348.6 10.69 337 -999
2009-10-05 08:13:20 51°19.923 2°51.656 348.6 10.69 337 -999
2009-10-05 08:13:30 51°19.95 2°51.638 348.6 10.69 337 -999
2009-10-05 08:13:40 51°19.978 2°51.62 348.6 10.69 337 -999
2009-10-05 08:13:50 51°20.006 2°51.602 348.6 10.69 337 -999
2009-10-05 08:14:00 51°20.034 2°51.585 349.6 10.8 339 -999
2009-10-05 08:14:10 51°20.061 2°51.568 349.6 10.8 339 -999
2009-10-05 08:14:20 51°20.089 2°51.55 349.6 10.8 339 -999
2009-10-05 08:14:30 51°20.116 2°51.533 349.6 10.8 339 -999
2009-10-05 08:14:40 51°20.144 2°51.516 349.6 10.8 339 -999
2009-10-05 08:14:50 51°20.172 2°51.5 349.6 10.8 339 -999
2009-10-05 08:15:00 51°20.199 2°51.483 349.8 10.69 340 -999
2009-10-05 08:15:10 51°20.228 2°51.467 349.8 10.69 340 -999
2009-10-05 08:15:20 51°20.255 2°51.45 349.8 10.69 340 -999
2009-10-05 08:15:30 51°20.284 2°51.434 349.8 10.69 340 -999
2009-10-05 08:15:40 51°20.312 2°51.418 349.8 10.69 340 -999
2009-10-05 08:15:50 51°20.34 2°51.402 349.8 10.69 340 -999
2009-10-05 08:16:00 51°20.369 2°51.386 349.8 10.9 342 -999
2009-10-05 08:16:10 51°20.398 2°51.37 349.8 10.9 342 -999
2009-10-05 08:16:20 51°20.426 2°51.354 349.8 10.9 342 -999
2009-10-05 08:16:30 51°20.454 2°51.338 349.8 10.9 342 -999
2009-10-05 08:16:40 51°20.483 2°51.323 349.8 10.9 342 -999
2009-10-05 08:16:50 51°20.512 2°51.308 349.8 10.9 342 -999
2009-10-05 08:17:00 51°20.54 2°51.292 351.3 10.8 341 -999
2009-10-05 08:17:10 51°20.568 2°51.276 351.3 10.8 341 -999
2009-10-05 08:17:20 51°20.597 2°51.261 351.3 10.8 341 -999
2009-10-05 08:17:30 51°20.625 2°51.244 351.3 10.8 341 -999
2009-10-05 08:17:40 51°20.654 2°51.227 351.3 10.8 341 -999
2009-10-05 08:17:50 51°20.682 2°51.21 351.3 10.8 341 -999
2009-10-05 08:18:00 51°20.711 2°51.193 349.8 10.9 339 -999
2009-10-05 08:18:10 51°20.739 2°51.175 349.8 10.9 339 -999
2009-10-05 08:18:20 51°20.767 2°51.157 349.8 10.9 339 -999
2009-10-05 08:18:30 51°20.795 2°51.139 349.8 10.9 339 -999
2009-10-05 08:18:40 51°20.823 2°51.121 349.8 10.9 339 -999
2009-10-05 08:18:50 51°20.852 2°51.104 349.8 10.9 339 -999
2009-10-05 08:19:00 51°20.88 2°51.087 349.8 11 340 -999
2009-10-05 08:19:10 51°20.908 2°51.069 349.8 11 340 -999
2009-10-05 08:19:20 51°20.937 2°51.052 349.8 11 340 -999
2009-10-05 08:19:30 51°20.965 2°51.035 349.8 11 340 -999
2009-10-05 08:19:40 51°20.994 2°51.018 349.8 11 340 -999
2009-10-05 08:19:50 51°21.022 2°51 349.8 11 340 -999
2009-10-05 08:20:00 51°21.05 2°50.982 350.3 10.9 338 -999
2009-10-05 08:20:10 51°21.078 2°50.965 350.3 10.9 338 -999
2009-10-05 08:20:20 51°21.106 2°50.947 350.3 10.9 338 -999
2009-10-05 08:20:30 51°21.134 2°50.928 350.3 10.9 338 -999
2009-10-05 08:20:40 51°21.162 2°50.909 350.3 10.9 338 -999
2009-10-05 08:20:50 51°21.19 2°50.891 350.3 10.9 338 -999
2009-10-05 08:21:00 51°21.218 2°50.872 349.6 10.9 337 -999
2009-10-05 08:21:10 51°21.246 2°50.855 349.6 10.9 337 -999
2009-10-05 08:21:20 51°21.274 2°50.837 349.6 10.9 337 -999
2009-10-05 08:21:30 51°21.303 2°50.819 349.6 10.9 337 -999
2009-10-05 08:21:40 51°21.33 2°50.802 349.6 10.9 337 -999
2009-10-05 08:21:50 51°21.359 2°50.786 349.6 10.9 337 -999
2009-10-05 08:22:00 51°21.386 2°50.769 350.3 10.8 340 -999
2009-10-05 08:22:10 51°21.414 2°50.752 350.3 10.8 340 -999
2009-10-05 08:22:20 51°21.442 2°50.736 350.3 10.8 340 -999
2009-10-05 08:22:30 51°21.471 2°50.721 350.3 10.8 340 -999
2009-10-05 08:22:40 51°21.499 2°50.705 350.3 10.8 340 -999
2009-10-05 08:22:50 51°21.528 2°50.69 350.3 10.8 340 -999
2009-10-05 08:23:00 51°21.557 2°50.675 351.6 10.9 342 -999
2009-10-05 08:23:10 51°21.585 2°50.658 351.6 10.9 342 -999
2009-10-05 08:23:20 51°21.614 2°50.642 351.6 10.9 342 -999
2009-10-05 08:23:30 51°21.642 2°50.626 351.6 10.9 342 -999
2009-10-05 08:23:40 51°21.671 2°50.61 351.6 10.9 342 -999
2009-10-05 08:23:50 51°21.699 2°50.595 351.6 10.9 342 -999
2009-10-05 08:24:00 51°21.728 2°50.579 350.8 10.8 342 -999
2009-10-05 08:24:10 51°21.756 2°50.564 350.8 10.8 342 -999
2009-10-05 08:24:20 51°21.785 2°50.548 350.8 10.8 342 -999
2009-10-05 08:24:30 51°21.813 2°50.532 350.8 10.8 342 -999
2009-10-05 08:24:40 51°21.841 2°50.517 350.8 10.8 342 -999
2009-10-05 08:24:50 51°21.87 2°50.5 350.8 10.8 342 -999
2009-10-05 08:25:00 51°21.898 2°50.484 349.8 10.9 341 -999
2009-10-05 08:25:10 51°21.927 2°50.468 349.8 10.9 341 -999
2009-10-05 08:25:20 51°21.955 2°50.451 349.8 10.9 341 -999
2009-10-05 08:25:30 51°21.983 2°50.436 349.8 10.9 341 -999
2009-10-05 08:25:40 51°22.012 2°50.419 349.8 10.9 341 -999
2009-10-05 08:25:50 51°22.04 2°50.403 349.8 10.9 341 -999
2009-10-05 08:26:00 51°22.068 2°50.388 350.6 10.8 341 -999
2009-10-05 08:26:10 51°22.096 2°50.371 350.6 10.8 341 -999
2009-10-05 08:26:20 51°22.125 2°50.356 350.6 10.8 341 -999
2009-10-05 08:26:30 51°22.153 2°50.34 350.6 10.8 341 -999
2009-10-05 08:26:40 51°22.181 2°50.323 350.6 10.8 341 -999
2009-10-05 08:26:50 51°22.21 2°50.307 350.6 10.8 341 -999
2009-10-05 08:27:00 51°22.238 2°50.289 349.1 10.9 340 -999
2009-10-05 08:27:10 51°22.266 2°50.273 349.1 10.9 340 -999
2009-10-05 08:27:20 51°22.294 2°50.257 349.1 10.9 340 -999
2009-10-05 08:27:30 51°22.323 2°50.241 349.1 10.9 340 -999
2009-10-05 08:27:40 51°22.351 2°50.226 349.1 10.9 340 -999
2009-10-05 08:27:50 51°22.38 2°50.212 349.1 10.9 340 -999
2009-10-05 08:28:00 51°22.408 2°50.196 350.8 10.9 341 -999
2009-10-05 08:28:10 51°22.437 2°50.182 350.8 10.9 341 -999
2009-10-05 08:28:20 51°22.466 2°50.166 350.8 10.9 341 -999
2009-10-05 08:28:30 51°22.494 2°50.151 350.8 10.9 341 -999
2009-10-05 08:28:40 51°22.523 2°50.136 350.8 10.9 341 -999
2009-10-05 08:28:50 51°22.551 2°50.121 350.8 10.9 341 -999
2009-10-05 08:29:00 51°22.58 2°50.105 349.8 10.8 341 -999
2009-10-05 08:29:10 51°22.608 2°50.09 349.8 10.8 341 -999
2009-10-05 08:29:20 51°22.637 2°50.075 349.8 10.8 341 -999
2009-10-05 08:29:30 51°22.665 2°50.06 349.8 10.8 341 -999
2009-10-05 08:29:40 51°22.694 2°50.046 349.8 10.8 341 -999
2009-10-05 08:29:50 51°22.722 2°50.032 349.8 10.8 341 -999
2009-10-05 08:30:00 51°22.751 2°50.019 351.6 10.69 344 -999
2009-10-05 08:30:10 51°22.779 2°50.005 351.6 10.69 344 -999
2009-10-05 08:30:20 51°22.807 2°49.991 351.6 10.69 344 -999
2009-10-05 08:30:30 51°22.835 2°49.977 351.6 10.69 344 -999
2009-10-05 08:30:40 51°22.862 2°49.964 351.6 10.69 344 -999
2009-10-05 08:30:50 51°22.89 2°49.949 351.6 10.69 344 -999
2009-10-05 08:31:00 51°22.917 2°49.933 348.3 10.59 339 -999
2009-10-05 08:31:10 51°22.944 2°49.916 348.3 10.59 339 -999
2009-10-05 08:31:20 51°22.972 2°49.898 348.3 10.59 339 -999
2009-10-05 08:31:30 51°22.999 2°49.878 348.3 10.59 339 -999
2009-10-05 08:31:40 51°23.026 2°49.86 348.3 10.59 339 -999
2009-10-05 08:31:50 51°23.053 2°49.84 348.3 10.59 339 -999
2009-10-05 08:32:00 51°23.079 2°49.821 344.8 10.5 338 -999
2009-10-05 08:32:10 51°23.106 2°49.802 344.8 10.5 338 -999
2009-10-05 08:32:20 51°23.133 2°49.783 344.8 10.5 338 -999
2009-10-05 08:32:30 51°23.16 2°49.764 344.8 10.5 338 -999
2009-10-05 08:32:40 51°23.187 2°49.744 344.8 10.5 338 -999
2009-10-05 08:32:50 51°23.214 2°49.723 344.8 10.5 338 -999
2009-10-05 08:33:00 51°23.24 2°49.702 343.3 10.69 334 -999
2009-10-05 08:33:10 51°23.267 2°49.681 343.3 10.69 334 -999
2009-10-05 08:33:20 51°23.293 2°49.66 343.3 10.69 334 -999
2009-10-05 08:33:30 51°23.32 2°49.639 343.3 10.69 334 -999
2009-10-05 08:33:40 51°23.348 2°49.619 343.3 10.69 334 -999
2009-10-05 08:33:50 51°23.374 2°49.597 343.3 10.69 334 -999
2009-10-05 08:34:00 51°23.401 2°49.575 344.1 10.69 334 -999
2009-10-05 08:34:10 51°23.427 2°49.554 344.1 10.69 334 -999
2009-10-05 08:34:20 51°23.453 2°49.532 344.1 10.69 334 -999
2009-10-05 08:34:30 51°23.48 2°49.51 344.1 10.69 334 -999
2009-10-05 08:34:40 51°23.507 2°49.489 344.1 10.69 334 -999
2009-10-05 08:34:50 51°23.534 2°49.467 344.1 10.69 334 -999
2009-10-05 08:35:00 51°23.561 2°49.446 344.6 10.9 334 -999
2009-10-05 08:35:10 51°23.588 2°49.426 344.6 10.9 334 -999
2009-10-05 08:35:20 51°23.615 2°49.405 344.6 10.9 334 -999
2009-10-05 08:35:30 51°23.642 2°49.383 344.6 10.9 334 -999
2009-10-05 08:35:40 51°23.669 2°49.364 344.6 10.9 334 -999
2009-10-05 08:35:50 51°23.696 2°49.344 344.6 10.9 334 -999
2009-10-05 08:36:00 51°23.723 2°49.324 347.3 10.9 334 -999
2009-10-05 08:36:10 51°23.751 2°49.304 347.3 10.9 334 -999
2009-10-05 08:36:20 51°23.778 2°49.284 347.3 10.9 334 -999
2009-10-05 08:36:30 51°23.806 2°49.264 347.3 10.9 334 -999
2009-10-05 08:36:40 51°23.833 2°49.244 347.3 10.9 334 -999
2009-10-05 08:36:50 51°23.861 2°49.224 347.3 10.9 334 -999
2009-10-05 08:37:00 51°23.888 2°49.204 346.3 10.9 336 -999
2009-10-05 08:37:10 51°23.916 2°49.183 346.3 10.9 336 -999
2009-10-05 08:37:20 51°23.942 2°49.162 346.3 10.9 336 -999
2009-10-05 08:37:30 51°23.97 2°49.141 346.3 10.9 336 -999
2009-10-05 08:37:40 51°23.997 2°49.119 346.3 10.9 336 -999
2009-10-05 08:37:50 51°24.024 2°49.097 346.3 10.9 336 -999
2009-10-05 08:38:00 51°24.051 2°49.076 345.1 10.9 334 -999
2009-10-05 08:38:10 51°24.078 2°49.055 345.1 10.9 334 -999
2009-10-05 08:38:20 51°24.106 2°49.035 345.1 10.9 334 -999
2009-10-05 08:38:30 51°24.133 2°49.015 345.1 10.9 334 -999
2009-10-05 08:38:40 51°24.161 2°48.994 345.1 10.9 334 -999
2009-10-05 08:38:50 51°24.189 2°48.974 345.1 10.9 334 -999
2009-10-05 08:39:00 51°24.216 2°48.953 345.6 11 335 -999
2009-10-05 08:39:10 51°24.244 2°48.933 345.6 11 335 -999
2009-10-05 08:39:20 51°24.272 2°48.912 345.6 11 335 -999
2009-10-05 08:39:30 51°24.298 2°48.891 345.6 11 335 -999
2009-10-05 08:39:40 51°24.326 2°48.871 345.6 11 335 -999
2009-10-05 08:39:50 51°24.353 2°48.851 345.6 11 335 -999
2009-10-05 08:40:00 51°24.38 2°48.83 344.8 10.9 335 -999
2009-10-05 08:40:10 51°24.407 2°48.808 344.8 10.9 335 -999
2009-10-05 08:40:20 51°24.434 2°48.787 344.8 10.9 335 -999
2009-10-05 08:40:30 51°24.462 2°48.766 344.8 10.9 335 -999
2009-10-05 08:40:40 51°24.49 2°48.745 344.8 10.9 335 -999
2009-10-05 08:40:50 51°24.517 2°48.724 344.8 10.9 335 -999
2009-10-05 08:41:00 51°24.544 2°48.703 345.1 10.5 334 -999
2009-10-05 08:41:10 51°24.57 2°48.684 345.1 10.5 334 -999
2009-10-05 08:41:20 51°24.595 2°48.663 345.1 10.5 334 -999
2009-10-05 08:41:30 51°24.618 2°48.645 345.1 10.5 334 -999
2009-10-05 08:41:40 51°24.638 2°48.628 345.1 10.5 334 -999
2009-10-05 08:41:50 51°24.657 2°48.612 345.1 10.5 334 -999
2009-10-05 08:42:00 51°24.677 2°48.596 345.6 7.59 333 -999
2009-10-05 08:42:10 51°24.696 2°48.579 345.6 7.59 333 -999
2009-10-05 08:42:20 51°24.714 2°48.563 345.6 7.59 333 -999
2009-10-05 08:42:30 51°24.732 2°48.547 345.6 7.59 333 -999
2009-10-05 08:42:40 51°24.75 2°48.531 345.6 7.59 333 -999
2009-10-05 08:42:50 51°24.767 2°48.515 345.6 7.59 333 -999
2009-10-05 08:43:00 51°24.785 2°48.498 345.5 7.4 331 -999
2009-10-05 08:43:10 51°24.802 2°48.483 345.5 7.4 331 -999
2009-10-05 08:43:20 51°24.819 2°48.466 345.5 7.4 331 -999
2009-10-05 08:43:30 51°24.836 2°48.449 345.5 7.4 331 -999
2009-10-05 08:43:40 51°24.854 2°48.433 345.5 7.4 331 -999
2009-10-05 08:43:50 51°24.872 2°48.417 345.5 7.4 331 -999
2009-10-05 08:44:00 51°24.889 2°48.4 345.6 7.2 330 -999
2009-10-05 08:44:10 51°24.906 2°48.384 345.6 7.2 330 -999
2009-10-05 08:44:20 51°24.923 2°48.368 345.6 7.2 330 -999
2009-10-05 08:44:30 51°24.937 2°48.352 345.6 7.2 330 -999
2009-10-05 08:44:40 51°24.951 2°48.338 345.6 7.2 330 -999
2009-10-05 08:44:50 51°24.963 2°48.324 345.6 7.2 330 -999
2009-10-05 08:45:00 51°24.973 2°48.31 343.3 4.9 319 -999
2009-10-05 08:45:10 51°24.982 2°48.297 343.3 4.9 319 -999
2009-10-05 08:45:20 51°24.99 2°48.282 343.3 4.9 319 -999
2009-10-05 08:45:30 51°24.998 2°48.269 343.3 4.9 319 -999
2009-10-05 08:45:40 51°25.005 2°48.255 343.3 4.9 319 -999
2009-10-05 08:45:50 51°25.014 2°48.242 343.3 4.9 319 -999
2009-10-05 08:46:00 51°25.023 2°48.231 345.8 3.89 327 -999
2009-10-05 08:46:10 51°25.032 2°48.224 345.8 3.89 327 -999
2009-10-05 08:46:20 51°25.039 2°48.217 345.8 3.89 327 -999
2009-10-05 08:46:30 51°25.045 2°48.212 345.8 3.89 327 -999
2009-10-05 08:46:40 51°25.05 2°48.207 345.8 3.89 327 -999
2009-10-05 08:46:50 51°25.054 2°48.203 345.8 3.89 327 -999
2009-10-05 08:47:00 51°25.058 2°48.2 20.1 1.6 332 -999
2009-10-05 08:47:10 51°25.062 2°48.196 20.1 1.6 332 -999
2009-10-05 08:47:20 51°25.065 2°48.192 20.1 1.6 332 -999
2009-10-05 08:47:30 51°25.068 2°48.188 20.1 1.6 332 -999
2009-10-05 08:47:40 51°25.07 2°48.185 20.1 1.6 332 -999
2009-10-05 08:47:50 51°25.072 2°48.181 20.1 1.6 332 -999
2009-10-05 08:48:00 51°25.074 2°48.177 36.1 1.3 302 -999
2009-10-05 08:48:10 51°25.075 2°48.173 36.1 1.3 302 -999
2009-10-05 08:48:20 51°25.077 2°48.168 36.1 1.3 302 -999
2009-10-05 08:48:30 51°25.078 2°48.164 36.1 1.3 302 -999
2009-10-05 08:48:40 51°25.078 2°48.16 36.1 1.3 302 -999
2009-10-05 08:48:50 51°25.079 2°48.156 36.1 1.3 302 -999
2009-10-05 08:49:00 51°25.079 2°48.152 50.7 1 283 -999
2009-10-05 08:49:10 51°25.08 2°48.148 50.7 1 283 -999
2009-10-05 08:49:20 51°25.08 2°48.144 50.7 1 283 -999
2009-10-05 08:49:30 51°25.08 2°48.14 50.7 1 283 -999
2009-10-05 08:49:40 51°25.08 2°48.135 50.7 1 283 -999
2009-10-05 08:49:50 51°25.08 2°48.131 50.7 1 283 -999
2009-10-05 08:50:00 51°25.079 2°48.127 63.8 1.1 265 -999
2009-10-05 08:50:10 51°25.079 2°48.123 63.8 1.1 265 -999
2009-10-05 08:50:20 51°25.079 2°48.118 63.8 1.1 265 -999
2009-10-05 08:50:30 51°25.078 2°48.114 63.8 1.1 265 -999
2009-10-05 08:50:40 51°25.077 2°48.109 63.8 1.1 265 -999
2009-10-05 08:50:50 51°25.077 2°48.104 63.8 1.1 265 -999
2009-10-05 08:51:00 51°25.076 2°48.099 73.7 1.19 254 -999
2009-10-05 08:51:10 51°25.075 2°48.094 73.7 1.19 254 -999
2009-10-05 08:51:20 51°25.074 2°48.089 73.7 1.19 254 -999
2009-10-05 08:51:30 51°25.073 2°48.084 73.7 1.19 254 -999
2009-10-05 08:51:40 51°25.073 2°48.079 73.7 1.19 254 -999
2009-10-05 08:51:50 51°25.072 2°48.075 73.7 1.19 254 -999
2009-10-05 08:52:00 51°25.071 2°48.075 78.7 0.5 129 -999
2009-10-05 08:52:10 51°25.071 2°48.081 78.7 0.5 129 -999
2009-10-05 08:52:20 51°25.07 2°48.092 78.7 0.5 129 -999
2009-10-05 08:52:30 51°25.067 2°48.102 78.7 0.5 129 -999
2009-10-05 08:52:40 51°25.064 2°48.113 78.7 0.5 129 -999
2009-10-05 08:52:50 51°25.062 2°48.122 78.7 0.5 129 -999
2009-10-05 08:53:00 51°25.058 2°48.131 102.7 2.29 124 -999
2009-10-05 08:53:10 51°25.055 2°48.139 102.7 2.29 124 -999
2009-10-05 08:53:20 51°25.051 2°48.148 102.7 2.29 124 -999
2009-10-05 08:53:30 51°25.047 2°48.156 102.7 2.29 124 -999
2009-10-05 08:53:40 51°25.043 2°48.165 102.7 2.29 124 -999
2009-10-05 08:53:50 51°25.038 2°48.174 102.7 2.29 124 -999
2009-10-05 08:54:00 51°25.033 2°48.183 108.2 2.7 132 -999
2009-10-05 08:54:10 51°25.029 2°48.192 108.2 2.7 132 -999
2009-10-05 08:54:20 51°25.025 2°48.201 108.2 2.7 132 -999
2009-10-05 08:54:30 51°25.02 2°48.21 108.2 2.7 132 -999
2009-10-05 08:54:40 51°25.015 2°48.22 108.2 2.7 132 -999
2009-10-05 08:54:50 51°25.011 2°48.229 108.2 2.7 132 -999
2009-10-05 08:55:00 51°25.007 2°48.238 108.7 2.7 126 -999
2009-10-05 08:55:10 51°25.002 2°48.247 108.7 2.7 126 -999
2009-10-05 08:55:20 51°24.997 2°48.257 108.7 2.7 126 -999
2009-10-05 08:55:30 51°24.993 2°48.267 108.7 2.7 126 -999
2009-10-05 08:55:40 51°24.989 2°48.276 108.7 2.7 126 -999
2009-10-05 08:55:50 51°24.985 2°48.286 108.7 2.7 126 -999
2009-10-05 08:56:00 51°24.98 2°48.296 107.9 2.7 126 -999
2009-10-05 08:56:10 51°24.976 2°48.305 107.9 2.7 126 -999
2009-10-05 08:56:20 51°24.971 2°48.315 107.9 2.7 126 -999
2009-10-05 08:56:30 51°24.966 2°48.325 107.9 2.7 126 -999
2009-10-05 08:56:40 51°24.962 2°48.335 107.9 2.7 126 -999
2009-10-05 08:56:50 51°24.957 2°48.345 107.9 2.7 126 -999
2009-10-05 08:57:00 51°24.953 2°48.355 107.5 2.7 122 -999
2009-10-05 08:57:10 51°24.95 2°48.365 107.5 2.7 122 -999
2009-10-05 08:57:20 51°24.946 2°48.375 107.5 2.7 122 -999
2009-10-05 08:57:30 51°24.942 2°48.385 107.5 2.7 122 -999
2009-10-05 08:57:40 51°24.937 2°48.395 107.5 2.7 122 -999
2009-10-05 08:57:50 51°24.933 2°48.405 107.5 2.7 122 -999
2009-10-05 08:58:00 51°24.928 2°48.414 108.2 2.79 130 -999
2009-10-05 08:58:10 51°24.924 2°48.424 108.2 2.79 130 -999
2009-10-05 08:58:20 51°24.92 2°48.434 108.2 2.79 130 -999
2009-10-05 08:58:30 51°24.915 2°48.444 108.2 2.79 130 -999
2009-10-05 08:58:40 51°24.911 2°48.454 108.2 2.79 130 -999
2009-10-05 08:58:50 51°24.907 2°48.464 108.2 2.79 130 -999
2009-10-05 08:59:00 51°24.902 2°48.473 108 2.7 126 -999
2009-10-05 08:59:10 51°24.898 2°48.483 108 2.7 126 -999
2009-10-05 08:59:20 51°24.894 2°48.493 108 2.7 126 -999
2009-10-05 08:59:30 51°24.889 2°48.503 108 2.7 126 -999
2009-10-05 08:59:40 51°24.885 2°48.513 108 2.7 126 -999
2009-10-05 08:59:50 51°24.881 2°48.524 108 2.7 126 -999
2009-10-05 09:00:00 51°24.876 2°48.534 106.7 2.79 120 -999
2009-10-05 09:00:10 51°24.871 2°48.544 106.7 2.79 120 -999
2009-10-05 09:00:20 51°24.867 2°48.554 106.7 2.79 120 -999
2009-10-05 09:00:30 51°24.861 2°48.564 106.7 2.79 120 -999
2009-10-05 09:00:40 51°24.855 2°48.572 106.7 2.79 120 -999
2009-10-05 09:00:50 51°24.849 2°48.58 106.7 2.79 120 -999
2009-10-05 09:01:00 51°24.842 2°48.588 124.5 3 146 -999
2009-10-05 09:01:10 51°24.834 2°48.595 124.5 3 146 -999
2009-10-05 09:01:20 51°24.826 2°48.602 124.5 3 146 -999
2009-10-05 09:01:30 51°24.818 2°48.608 124.5 3 146 -999
2009-10-05 09:01:40 51°24.81 2°48.615 124.5 3 146 -999
2009-10-05 09:01:50 51°24.802 2°48.62 124.5 3 146 -999
2009-10-05 09:02:00 51°24.792 2°48.624 139 3.5 169 -999
2009-10-05 09:02:10 51°24.783 2°48.627 139 3.5 169 -999
2009-10-05 09:02:20 51°24.772 2°48.628 139 3.5 169 -999
2009-10-05 09:02:30 51°24.761 2°48.627 139 3.5 169 -999
2009-10-05 09:02:40 51°24.75 2°48.625 139 3.5 169 -999
2009-10-05 09:02:50 51°24.739 2°48.621 139 3.5 169 -999
2009-10-05 09:03:00 51°24.728 2°48.616 177.1 4.29 199 -999
2009-10-05 09:03:10 51°24.716 2°48.608 177.1 4.29 199 -999
2009-10-05 09:03:20 51°24.705 2°48.599 177.1 4.29 199 -999
2009-10-05 09:03:30 51°24.695 2°48.587 177.1 4.29 199 -999
2009-10-05 09:03:40 51°24.685 2°48.573 177.1 4.29 199 -999
2009-10-05 09:03:50 51°24.676 2°48.558 177.1 4.29 199 -999
2009-10-05 09:04:00 51°24.667 2°48.54 222 4.9 231 -999
2009-10-05 09:04:10 51°24.66 2°48.522 222 4.9 231 -999
2009-10-05 09:04:20 51°24.653 2°48.502 222 4.9 231 -999
2009-10-05 09:04:30 51°24.648 2°48.481 222 4.9 231 -999
2009-10-05 09:04:40 51°24.643 2°48.459 222 4.9 231 -999
2009-10-05 09:04:50 51°24.639 2°48.437 222 4.9 231 -999
2009-10-05 09:05:00 51°24.636 2°48.415 260.6 5.2 255 -999
2009-10-05 09:05:10 51°24.633 2°48.392 260.6 5.2 255 -999
2009-10-05 09:05:20 51°24.632 2°48.369 260.6 5.2 255 -999
2009-10-05 09:05:30 51°24.632 2°48.347 260.6 5.2 255 -999
2009-10-05 09:05:40 51°24.632 2°48.324 260.6 5.2 255 -999
2009-10-05 09:05:50 51°24.633 2°48.302 260.6 5.2 255 -999
2009-10-05 09:06:00 51°24.635 2°48.283 286.1 4.4 275 -999
2009-10-05 09:06:10 51°24.636 2°48.264 286.1 4.4 275 -999
2009-10-05 09:06:20 51°24.637 2°48.246 286.1 4.4 275 -999
2009-10-05 09:06:30 51°24.638 2°48.23 286.1 4.4 275 -999
2009-10-05 09:06:40 51°24.638 2°48.214 286.1 4.4 275 -999
2009-10-05 09:06:50 51°24.639 2°48.199 286.1 4.4 275 -999
2009-10-05 09:07:00 51°24.639 2°48.184 289.1 3.29 273 -999
2009-10-05 09:07:10 51°24.64 2°48.17 289.1 3.29 273 -999
2009-10-05 09:07:20 51°24.64 2°48.156 289.1 3.29 273 -999
2009-10-05 09:07:30 51°24.64 2°48.143 289.1 3.29 273 -999
2009-10-05 09:07:40 51°24.639 2°48.13 289.1 3.29 273 -999
2009-10-05 09:07:50 51°24.639 2°48.118 289.1 3.29 273 -999
2009-10-05 09:08:00 51°24.639 2°48.106 282 2.6 273 -999
2009-10-05 09:08:10 51°24.639 2°48.094 282 2.6 273 -999
2009-10-05 09:08:20 51°24.639 2°48.083 282 2.6 273 -999
2009-10-05 09:08:30 51°24.639 2°48.071 282 2.6 273 -999
2009-10-05 09:08:40 51°24.639 2°48.06 282 2.6 273 -999
2009-10-05 09:08:50 51°24.638 2°48.049 282 2.6 273 -999
2009-10-05 09:09:00 51°24.638 2°48.038 281.1 2.6 265 -999
2009-10-05 09:09:10 51°24.637 2°48.027 281.1 2.6 265 -999
2009-10-05 09:09:20 51°24.636 2°48.015 281.1 2.6 265 -999
2009-10-05 09:09:30 51°24.635 2°48.004 281.1 2.6 265 -999
2009-10-05 09:09:40 51°24.635 2°47.994 281.1 2.6 265 -999
2009-10-05 09:09:50 51°24.634 2°47.983 281.1 2.6 265 -999
2009-10-05 09:10:00 51°24.633 2°47.972 274.6 2.5 265 -999
2009-10-05 09:10:10 51°24.632 2°47.961 274.6 2.5 265 -999
2009-10-05 09:10:20 51°24.631 2°47.951 274.6 2.5 265 -999
2009-10-05 09:10:30 51°24.63 2°47.94 274.6 2.5 265 -999
2009-10-05 09:10:40 51°24.629 2°47.93 274.6 2.5 265 -999
2009-10-05 09:10:50 51°24.628 2°47.919 274.6 2.5 265 -999
2009-10-05 09:11:00 51°24.627 2°47.909 271.3 2.39 264 -999
2009-10-05 09:11:10 51°24.626 2°47.898 271.3 2.39 264 -999
2009-10-05 09:11:20 51°24.625 2°47.888 271.3 2.39 264 -999
2009-10-05 09:11:30 51°24.624 2°47.877 271.3 2.39 264 -999
2009-10-05 09:11:40 51°24.624 2°47.867 271.3 2.39 264 -999
2009-10-05 09:11:50 51°24.623 2°47.857 271.3 2.39 264 -999
2009-10-05 09:12:00 51°24.621 2°47.846 268.6 2.29 257 -999
2009-10-05 09:12:10 51°24.621 2°47.836 268.6 2.29 257 -999
2009-10-05 09:12:20 51°24.619 2°47.826 268.6 2.29 257 -999
2009-10-05 09:12:30 51°24.619 2°47.815 268.6 2.29 257 -999
2009-10-05 09:12:40 51°24.618 2°47.805 268.6 2.29 257 -999
2009-10-05 09:12:50 51°24.616 2°47.795 268.6 2.29 257 -999
2009-10-05 09:13:00 51°24.616 2°47.784 268.1 2.39 258 -999
2009-10-05 09:13:10 51°24.615 2°47.774 268.1 2.39 258 -999
2009-10-05 09:13:20 51°24.615 2°47.763 268.1 2.39 258 -999
2009-10-05 09:13:30 51°24.613 2°47.753 268.1 2.39 258 -999
2009-10-05 09:13:40 51°24.612 2°47.742 268.1 2.39 258 -999
2009-10-05 09:13:50 51°24.611 2°47.732 268.1 2.39 258 -999
2009-10-05 09:14:00 51°24.61 2°47.721 268.6 2.5 258 -999
2009-10-05 09:14:10 51°24.609 2°47.71 268.6 2.5 258 -999
2009-10-05 09:14:20 51°24.609 2°47.699 268.6 2.5 258 -999
2009-10-05 09:14:30 51°24.608 2°47.687 268.6 2.5 258 -999
2009-10-05 09:14:40 51°24.607 2°47.675 268.6 2.5 258 -999
2009-10-05 09:14:50 51°24.606 2°47.663 268.6 2.5 258 -999
2009-10-05 09:15:00 51°24.605 2°47.65 269.6 2.89 264 -999
2009-10-05 09:15:10 51°24.603 2°47.637 269.6 2.89 264 -999
2009-10-05 09:15:20 51°24.603 2°47.624 269.6 2.89 264 -999
2009-10-05 09:15:30 51°24.602 2°47.611 269.6 2.89 264 -999
2009-10-05 09:15:40 51°24.601 2°47.597 269.6 2.89 264 -999
2009-10-05 09:15:50 51°24.599 2°47.584 269.6 2.89 264 -999
2009-10-05 09:16:00 51°24.598 2°47.57 268.6 3.2 262 -999
2009-10-05 09:16:10 51°24.597 2°47.557 268.6 3.2 262 -999
2009-10-05 09:16:20 51°24.596 2°47.543 268.6 3.2 262 -999
2009-10-05 09:16:30 51°24.595 2°47.529 268.6 3.2 262 -999
2009-10-05 09:16:40 51°24.593 2°47.515 268.6 3.2 262 -999
2009-10-05 09:16:50 51°24.592 2°47.501 268.6 3.2 262 -999
2009-10-05 09:17:00 51°24.591 2°47.487 270.1 3.29 263 -999
2009-10-05 09:17:10 51°24.59 2°47.472 270.1 3.29 263 -999
2009-10-05 09:17:20 51°24.589 2°47.457 270.1 3.29 263 -999
2009-10-05 09:17:30 51°24.588 2°47.442 270.1 3.29 263 -999
2009-10-05 09:17:40 51°24.587 2°47.427 270.1 3.29 263 -999
2009-10-05 09:17:50 51°24.586 2°47.412 270.1 3.29 263 -999
2009-10-05 09:18:00 51°24.585 2°47.397 273.1 3.5 265 -999
2009-10-05 09:18:10 51°24.584 2°47.382 273.1 3.5 265 -999
2009-10-05 09:18:20 51°24.584 2°47.366 273.1 3.5 265 -999
2009-10-05 09:18:30 51°24.583 2°47.35 273.1 3.5 265 -999
2009-10-05 09:18:40 51°24.583 2°47.334 273.1 3.5 265 -999
2009-10-05 09:18:50 51°24.584 2°47.318 273.1 3.5 265 -999
2009-10-05 09:19:00 51°24.585 2°47.303 288.3 3.39 277 -999
2009-10-05 09:19:10 51°24.585 2°47.287 288.3 3.39 277 -999
2009-10-05 09:19:20 51°24.586 2°47.271 288.3 3.39 277 -999
2009-10-05 09:19:30 51°24.588 2°47.255 288.3 3.39 277 -999
2009-10-05 09:19:40 51°24.59 2°47.24 288.3 3.39 277 -999
2009-10-05 09:19:50 51°24.591 2°47.225 288.3 3.39 277 -999
2009-10-05 09:20:00 51°24.594 2°47.21 304.6 3.5 283 -999
2009-10-05 09:20:10 51°24.596 2°47.195 304.6 3.5 283 -999
2009-10-05 09:20:20 51°24.6 2°47.181 304.6 3.5 283 -999
2009-10-05 09:20:30 51°24.602 2°47.166 304.6 3.5 283 -999
2009-10-05 09:20:40 51°24.606 2°47.153 304.6 3.5 283 -999
2009-10-05 09:20:50 51°24.609 2°47.141 304.6 3.5 283 -999
2009-10-05 09:21:00 51°24.613 2°47.129 329.3 2.89 299 -999
2009-10-05 09:21:10 51°24.618 2°47.118 329.3 2.89 299 -999
2009-10-05 09:21:20 51°24.623 2°47.108 329.3 2.89 299 -999
2009-10-05 09:21:30 51°24.628 2°47.1 329.3 2.89 299 -999
2009-10-05 09:21:40 51°24.633 2°47.091 329.3 2.89 299 -999
2009-10-05 09:21:50 51°24.638 2°47.085 329.3 2.89 299 -999
2009-10-05 09:22:00 51°24.644 2°47.081 6.2 2.1 334 -999
2009-10-05 09:22:10 51°24.648 2°47.077 6.2 2.1 334 -999
2009-10-05 09:22:20 51°24.653 2°47.073 6.2 2.1 334 -999
2009-10-05 09:22:30 51°24.658 2°47.07 6.2 2.1 334 -999
2009-10-05 09:22:40 51°24.663 2°47.069 6.2 2.1 334 -999
2009-10-05 09:22:50 51°24.667 2°47.067 6.2 2.1 334 -999
2009-10-05 09:23:00 51°24.671 2°47.066 27 1.6 354 -999
2009-10-05 09:23:10 51°24.676 2°47.065 27 1.6 354 -999
2009-10-05 09:23:20 51°24.68 2°47.064 27 1.6 354 -999
2009-10-05 09:23:30 51°24.684 2°47.064 27 1.6 354 -999
2009-10-05 09:23:40 51°24.687 2°47.064 27 1.6 354 -999
2009-10-05 09:23:50 51°24.691 2°47.065 27 1.6 354 -999
2009-10-05 09:24:00 51°24.693 2°47.066 48.2 0.9 13 -999
2009-10-05 09:24:10 51°24.695 2°47.068 48.2 0.9 13 -999
2009-10-05 09:24:20 51°24.697 2°47.07 48.2 0.9 13 -999
2009-10-05 09:24:30 51°24.699 2°47.072 48.2 0.9 13 -999
2009-10-05 09:24:40 51°24.7 2°47.074 48.2 0.9 13 -999
2009-10-05 09:24:50 51°24.7 2°47.076 48.2 0.9 13 -999
2009-10-05 09:25:00 51°24.7 2°47.076 78.7 0.1 54 -999
2009-10-05 09:25:10 51°24.7 2°47.077 78.7 0.1 54 -999
2009-10-05 09:25:20 51°24.7 2°47.076 78.7 0.1 54 -999
2009-10-05 09:25:30 51°24.699 2°47.075 78.7 0.1 54 -999
2009-10-05 09:25:40 51°24.699 2°47.074 78.7 0.1 54 -999
2009-10-05 09:25:50 51°24.698 2°47.072 78.7 0.1 54 -999
2009-10-05 09:26:00 51°24.697 2°47.069 89.4 0.69 242 -999
2009-10-05 09:26:10 51°24.696 2°47.067 89.4 0.69 242 -999
2009-10-05 09:26:20 51°24.695 2°47.063 89.4 0.69 242 -999
2009-10-05 09:26:30 51°24.694 2°47.06 89.4 0.69 242 -999
2009-10-05 09:26:40 51°24.693 2°47.057 89.4 0.69 242 -999
2009-10-05 09:26:50 51°24.693 2°47.053 89.4 0.69 242 -999
2009-10-05 09:27:00 51°24.692 2°47.049 93.9 1.1 246 -999
2009-10-05 09:27:10 51°24.691 2°47.045 93.9 1.1 246 -999
2009-10-05 09:27:20 51°24.69 2°47.041 93.9 1.1 246 -999
2009-10-05 09:27:30 51°24.69 2°47.037 93.9 1.1 246 -999
2009-10-05 09:27:40 51°24.689 2°47.032 93.9 1.1 246 -999
2009-10-05 09:27:50 51°24.689 2°47.027 93.9 1.1 246 -999
2009-10-05 09:28:00 51°24.688 2°47.023 95.9 1 265 -999
2009-10-05 09:28:10 51°24.687 2°47.018 95.9 1 265 -999
2009-10-05 09:28:20 51°24.687 2°47.013 95.9 1 265 -999
2009-10-05 09:28:30 51°24.687 2°47.008 95.9 1 265 -999
2009-10-05 09:28:40 51°24.687 2°47.003 95.9 1 265 -999
2009-10-05 09:28:50 51°24.686 2°46.998 95.9 1 265 -999
2009-10-05 09:29:00 51°24.686 2°46.996 94.5 0.1 233 -999
2009-10-05 09:29:10 51°24.685 2°47.002 94.5 0.1 233 -999
2009-10-05 09:29:20 51°24.683 2°47.013 94.5 0.1 233 -999
2009-10-05 09:29:30 51°24.681 2°47.029 94.5 0.1 233 -999
2009-10-05 09:29:40 51°24.681 2°47.048 94.5 0.1 233 -999
2009-10-05 09:29:50 51°24.68 2°47.069 94.5 0.1 233 -999
2009-10-05 09:30:00 51°24.681 2°47.092 85 5.29 86 -999
2009-10-05 09:30:10 51°24.682 2°47.118 85 5.29 86 -999
2009-10-05 09:30:20 51°24.685 2°47.144 85 5.29 86 -999
2009-10-05 09:30:30 51°24.69 2°47.171 85 5.29 86 -999
2009-10-05 09:30:40 51°24.696 2°47.197 85 5.29 86 -999
2009-10-05 09:30:50 51°24.701 2°47.223 85 5.29 86 -999
2009-10-05 09:31:00 51°24.708 2°47.247 66 6.09 67 -999
2009-10-05 09:31:10 51°24.716 2°47.272 66 6.09 67 -999
2009-10-05 09:31:20 51°24.724 2°47.295 66 6.09 67 -999
2009-10-05 09:31:30 51°24.731 2°47.32 66 6.09 67 -999
2009-10-05 09:31:40 51°24.739 2°47.346 66 6.09 67 -999
2009-10-05 09:31:50 51°24.747 2°47.373 66 6.09 67 -999
2009-10-05 09:32:00 51°24.754 2°47.403 67.4 7.4 71 -999
2009-10-05 09:32:10 51°24.761 2°47.435 67.4 7.4 71 -999
2009-10-05 09:32:20 51°24.767 2°47.469 67.4 7.4 71 -999
2009-10-05 09:32:30 51°24.77 2°47.504 67.4 7.4 71 -999
2009-10-05 09:32:40 51°24.771 2°47.54 67.4 7.4 71 -999
2009-10-05 09:32:50 51°24.769 2°47.576 67.4 7.4 71 -999
2009-10-05 09:33:00 51°24.766 2°47.612 92.4 8.19 100 -999
2009-10-05 09:33:10 51°24.762 2°47.649 92.4 8.19 100 -999
2009-10-05 09:33:20 51°24.758 2°47.688 92.4 8.19 100 -999
2009-10-05 09:33:30 51°24.754 2°47.729 92.4 8.19 100 -999
2009-10-05 09:33:40 51°24.75 2°47.772 92.4 8.19 100 -999
2009-10-05 09:33:50 51°24.745 2°47.814 92.4 8.19 100 -999
2009-10-05 09:34:00 51°24.742 2°47.857 94.5 9.69 97 -999
2009-10-05 09:34:10 51°24.738 2°47.901 94.5 9.69 97 -999
2009-10-05 09:34:20 51°24.734 2°47.944 94.5 9.69 97 -999
2009-10-05 09:34:30 51°24.731 2°47.988 94.5 9.69 97 -999
2009-10-05 09:34:40 51°24.727 2°48.031 94.5 9.69 97 -999
2009-10-05 09:34:50 51°24.723 2°48.075 94.5 9.69 97 -999
2009-10-05 09:35:00 51°24.721 2°48.119 92.4 10 94 -999
2009-10-05 09:35:10 51°24.719 2°48.163 92.4 10 94 -999
2009-10-05 09:35:20 51°24.716 2°48.207 92.4 10 94 -999
2009-10-05 09:35:30 51°24.714 2°48.252 92.4 10 94 -999
2009-10-05 09:35:40 51°24.713 2°48.296 92.4 10 94 -999
2009-10-05 09:35:50 51°24.713 2°48.34 92.4 10 94 -999
2009-10-05 09:36:00 51°24.715 2°48.385 86 9.9 87 -999
2009-10-05 09:36:10 51°24.718 2°48.428 86 9.9 87 -999
2009-10-05 09:36:20 51°24.725 2°48.47 86 9.9 87 -999
2009-10-05 09:36:30 51°24.733 2°48.511 86 9.9 87 -999
2009-10-05 09:36:40 51°24.744 2°48.551 86 9.9 87 -999
2009-10-05 09:36:50 51°24.757 2°48.59 86 9.9 87 -999
2009-10-05 09:37:00 51°24.771 2°48.628 61.1 9.9 61 -999
2009-10-05 09:37:10 51°24.785 2°48.665 61.1 9.9 61 -999
2009-10-05 09:37:20 51°24.8 2°48.7 61.1 9.9 61 -999
2009-10-05 09:37:30 51°24.812 2°48.73 61.1 9.9 61 -999
2009-10-05 09:37:40 51°24.825 2°48.756 61.1 9.9 61 -999
2009-10-05 09:37:50 51°24.839 2°48.777 61.1 9.9 61 -999
2009-10-05 09:38:00 51°24.854 2°48.789 40 6 21 -999
2009-10-05 09:38:10 51°24.868 2°48.792 40 6 21 -999
2009-10-05 09:38:20 51°24.88 2°48.791 40 6 21 -999
2009-10-05 09:38:30 51°24.891 2°48.785 40 6 21 -999
2009-10-05 09:38:40 51°24.899 2°48.777 40 6 21 -999
2009-10-05 09:38:50 51°24.907 2°48.766 40 6 21 -999
2009-10-05 09:39:00 51°24.914 2°48.754 336.1 3.6 312 -999
2009-10-05 09:39:10 51°24.92 2°48.743 336.1 3.6 312 -999
2009-10-05 09:39:20 51°24.925 2°48.731 336.1 3.6 312 -999
2009-10-05 09:39:30 51°24.929 2°48.72 336.1 3.6 312 -999
2009-10-05 09:39:40 51°24.932 2°48.709 336.1 3.6 312 -999
2009-10-05 09:39:50 51°24.934 2°48.7 336.1 3.6 312 -999
2009-10-05 09:40:00 51°24.935 2°48.69 307.8 2.2 279 -999
2009-10-05 09:40:10 51°24.936 2°48.681 307.8 2.2 279 -999
2009-10-05 09:40:20 51°24.936 2°48.673 307.8 2.2 279 -999
2009-10-05 09:40:30 51°24.936 2°48.668 307.8 2.2 279 -999
2009-10-05 09:40:40 51°24.936 2°48.663 307.8 2.2 279 -999
2009-10-05 09:40:50 51°24.936 2°48.658 307.8 2.2 279 -999
2009-10-05 09:41:00 51°24.935 2°48.653 290 1 280 -999
2009-10-05 09:41:10 51°24.935 2°48.649 290 1 280 -999
2009-10-05 09:41:20 51°24.935 2°48.644 290 1 280 -999
2009-10-05 09:41:30 51°24.935 2°48.64 290 1 280 -999
2009-10-05 09:41:40 51°24.936 2°48.636 290 1 280 -999
2009-10-05 09:41:50 51°24.936 2°48.631 290 1 280 -999
2009-10-05 09:42:00 51°24.936 2°48.628 286.6 0.9 282 -999
2009-10-05 09:42:10 51°24.937 2°48.624 286.6 0.9 282 -999
2009-10-05 09:42:20 51°24.937 2°48.62 286.6 0.9 282 -999
2009-10-05 09:42:30 51°24.937 2°48.616 286.6 0.9 282 -999
2009-10-05 09:42:40 51°24.937 2°48.612 286.6 0.9 282 -999
2009-10-05 09:42:50 51°24.938 2°48.608 286.6 0.9 282 -999
2009-10-05 09:43:00 51°24.938 2°48.604 291 1 270 -999
2009-10-05 09:43:10 51°24.937 2°48.6 291 1 270 -999
2009-10-05 09:43:20 51°24.938 2°48.596 291 1 270 -999
2009-10-05 09:43:30 51°24.938 2°48.592 291 1 270 -999
2009-10-05 09:43:40 51°24.937 2°48.588 291 1 270 -999
2009-10-05 09:43:50 51°24.938 2°48.584 291 1 270 -999
2009-10-05 09:44:00 51°24.938 2°48.58 289.6 1 258 -999
2009-10-05 09:44:10 51°24.938 2°48.576 289.6 1 258 -999
2009-10-05 09:44:20 51°24.938 2°48.573 289.6 1 258 -999
2009-10-05 09:44:30 51°24.938 2°48.57 289.6 1 258 -999
2009-10-05 09:44:40 51°24.939 2°48.566 289.6 1 258 -999
2009-10-05 09:44:50 51°24.939 2°48.563 289.6 1 258 -999
2009-10-05 09:45:00 51°24.939 2°48.56 290.1 0.59 297 -999
2009-10-05 09:45:10 51°24.939 2°48.557 290.1 0.59 297 -999
2009-10-05 09:45:20 51°24.939 2°48.553 290.1 0.59 297 -999
2009-10-05 09:45:30 51°24.939 2°48.55 290.1 0.59 297 -999
2009-10-05 09:45:40 51°24.939 2°48.546 290.1 0.59 297 -999
2009-10-05 09:45:50 51°24.939 2°48.543 290.1 0.59 297 -999
2009-10-05 09:46:00 51°24.94 2°48.54 292.1 0.8 279 -999
2009-10-05 09:46:10 51°24.94 2°48.536 292.1 0.8 279 -999
2009-10-05 09:46:20 51°24.94 2°48.533 292.1 0.8 279 -999
2009-10-05 09:46:30 51°24.94 2°48.529 292.1 0.8 279 -999
2009-10-05 09:46:40 51°24.94 2°48.526 292.1 0.8 279 -999
2009-10-05 09:46:50 51°24.941 2°48.522 292.1 0.8 279 -999
2009-10-05 09:47:00 51°24.941 2°48.519 289 0.8 268 -999
2009-10-05 09:47:10 51°24.941 2°48.515 289 0.8 268 -999
2009-10-05 09:47:20 51°24.941 2°48.512 289 0.8 268 -999
2009-10-05 09:47:30 51°24.942 2°48.509 289 0.8 268 -999
2009-10-05 09:47:40 51°24.942 2°48.505 289 0.8 268 -999
2009-10-05 09:47:50 51°24.942 2°48.501 289 0.8 268 -999
2009-10-05 09:48:00 51°24.943 2°48.497 285.3 0.9 285 -999
2009-10-05 09:48:10 51°24.943 2°48.494 285.3 0.9 285 -999
2009-10-05 09:48:20 51°24.943 2°48.49 285.3 0.9 285 -999
2009-10-05 09:48:30 51°24.944 2°48.487 285.3 0.9 285 -999
2009-10-05 09:48:40 51°24.944 2°48.483 285.3 0.9 285 -999
2009-10-05 09:48:50 51°24.944 2°48.48 285.3 0.9 285 -999
2009-10-05 09:49:00 51°24.944 2°48.476 288.1 0.9 268 -999
2009-10-05 09:49:10 51°24.944 2°48.472 288.1 0.9 268 -999
2009-10-05 09:49:20 51°24.945 2°48.468 288.1 0.9 268 -999
2009-10-05 09:49:30 51°24.945 2°48.465 288.1 0.9 268 -999
2009-10-05 09:49:40 51°24.945 2°48.461 288.1 0.9 268 -999
2009-10-05 09:49:50 51°24.945 2°48.457 288.1 0.9 268 -999
2009-10-05 09:50:00 51°24.945 2°48.453 284.5 1.1 264 -999
2009-10-05 09:50:10 51°24.946 2°48.449 284.5 1.1 264 -999
2009-10-05 09:50:20 51°24.946 2°48.445 284.5 1.1 264 -999
2009-10-05 09:50:30 51°24.946 2°48.441 284.5 1.1 264 -999
2009-10-05 09:50:40 51°24.947 2°48.438 284.5 1.1 264 -999
2009-10-05 09:50:50 51°24.947 2°48.434 284.5 1.1 264 -999
2009-10-05 09:51:00 51°24.947 2°48.43 281.3 0.9 277 -999
2009-10-05 09:51:10 51°24.947 2°48.426 281.3 0.9 277 -999
2009-10-05 09:51:20 51°24.948 2°48.423 281.3 0.9 277 -999
2009-10-05 09:51:30 51°24.948 2°48.419 281.3 0.9 277 -999
2009-10-05 09:51:40 51°24.949 2°48.415 281.3 0.9 277 -999
2009-10-05 09:51:50 51°24.949 2°48.412 281.3 0.9 277 -999
2009-10-05 09:52:00 51°24.949 2°48.408 282.3 0.8 265 -999
2009-10-05 09:52:10 51°24.949 2°48.405 282.3 0.8 265 -999
2009-10-05 09:52:20 51°24.949 2°48.401 282.3 0.8 265 -999
2009-10-05 09:52:30 51°24.95 2°48.398 282.3 0.8 265 -999
2009-10-05 09:52:40 51°24.95 2°48.395 282.3 0.8 265 -999
2009-10-05 09:52:50 51°24.95 2°48.392 282.3 0.8 265 -999
2009-10-05 09:53:00 51°24.95 2°48.388 285.1 0.69 291 -999
2009-10-05 09:53:10 51°24.951 2°48.385 285.1 0.69 291 -999
2009-10-05 09:53:20 51°24.951 2°48.382 285.1 0.69 291 -999
2009-10-05 09:53:30 51°24.951 2°48.379 285.1 0.69 291 -999
2009-10-05 09:53:40 51°24.952 2°48.376 285.1 0.69 291 -999
2009-10-05 09:53:50 51°24.952 2°48.372 285.1 0.69 291 -999
2009-10-05 09:54:00 51°24.953 2°48.369 286.1 0.8 306 -999
2009-10-05 09:54:10 51°24.953 2°48.366 286.1 0.8 306 -999
2009-10-05 09:54:20 51°24.953 2°48.363 286.1 0.8 306 -999
2009-10-05 09:54:30 51°24.954 2°48.36 286.1 0.8 306 -999
2009-10-05 09:54:40 51°24.954 2°48.357 286.1 0.8 306 -999
2009-10-05 09:54:50 51°24.954 2°48.354 286.1 0.8 306 -999
2009-10-05 09:55:00 51°24.954 2°48.351 288.8 0.69 277 -999
2009-10-05 09:55:10 51°24.955 2°48.349 288.8 0.69 277 -999
2009-10-05 09:55:20 51°24.955 2°48.345 288.8 0.69 277 -999
2009-10-05 09:55:30 51°24.957 2°48.339 288.8 0.69 277 -999
2009-10-05 09:55:40 51°24.959 2°48.329 288.8 0.69 277 -999
2009-10-05 09:55:50 51°24.963 2°48.315 288.8 0.69 277 -999
2009-10-05 09:56:00 51°24.97 2°48.302 319 4.09 311 -999
2009-10-05 09:56:10 51°24.979 2°48.291 319 4.09 311 -999
2009-10-05 09:56:20 51°24.99 2°48.284 319 4.09 311 -999
2009-10-05 09:56:30 51°25 2°48.283 319 4.09 311 -999
2009-10-05 09:56:40 51°25.009 2°48.288 319 4.09 311 -999
2009-10-05 09:56:50 51°25.017 2°48.297 319 4.09 311 -999
2009-10-05 09:57:00 51°25.022 2°48.309 55 3.1 61 -999
2009-10-05 09:57:10 51°25.024 2°48.32 55 3.1 61 -999
2009-10-05 09:57:20 51°25.024 2°48.332 55 3.1 61 -999
2009-10-05 09:57:30 51°25.023 2°48.343 55 3.1 61 -999
2009-10-05 09:57:40 51°25.02 2°48.353 55 3.1 61 -999
2009-10-05 09:57:50 51°25.016 2°48.362 55 3.1 61 -999
2009-10-05 09:58:00 51°25.011 2°48.37 120.4 2.6 137 -999
2009-10-05 09:58:10 51°25.005 2°48.377 120.4 2.6 137 -999
2009-10-05 09:58:20 51°24.999 2°48.383 120.4 2.6 137 -999
2009-10-05 09:58:30 51°24.992 2°48.39 120.4 2.6 137 -999
2009-10-05 09:58:40 51°24.986 2°48.397 120.4 2.6 137 -999
2009-10-05 09:58:50 51°24.98 2°48.405 120.4 2.6 137 -999
2009-10-05 09:59:00 51°24.974 2°48.416 122.7 3.2 125 -999
2009-10-05 09:59:10 51°24.969 2°48.427 122.7 3.2 125 -999
2009-10-05 09:59:20 51°24.965 2°48.438 122.7 3.2 125 -999
2009-10-05 09:59:30 51°24.962 2°48.449 122.7 3.2 125 -999
2009-10-05 09:59:40 51°24.962 2°48.461 122.7 3.2 125 -999
2009-10-05 09:59:50 51°24.963 2°48.472 122.7 3.2 125 -999
2009-10-05 10:00:00 51°24.967 2°48.481 69 2.39 49 -999
2009-10-05 10:00:10 51°24.972 2°48.488 69 2.39 49 -999
2009-10-05 10:00:20 51°24.978 2°48.494 69 2.39 49 -999
2009-10-05 10:00:30 51°24.984 2°48.496 69 2.39 49 -999
2009-10-05 10:00:40 51°24.992 2°48.495 69 2.39 49 -999
2009-10-05 10:00:50 51°24.999 2°48.491 69 2.39 49 -999
2009-10-05 10:01:00 51°25.007 2°48.483 354.3 3.1 325 -999
2009-10-05 10:01:10 51°25.013 2°48.474 354.3 3.1 325 -999
2009-10-05 10:01:20 51°25.019 2°48.463 354.3 3.1 325 -999
2009-10-05 10:01:30 51°25.023 2°48.452 354.3 3.1 325 -999
2009-10-05 10:01:40 51°25.026 2°48.443 354.3 3.1 325 -999
2009-10-05 10:01:50 51°25.028 2°48.435 354.3 3.1 325 -999
2009-10-05 10:02:00 51°25.029 2°48.429 302.8 1.3 283 -999
2009-10-05 10:02:10 51°25.03 2°48.425 302.8 1.3 283 -999
2009-10-05 10:02:20 51°25.03 2°48.423 302.8 1.3 283 -999
2009-10-05 10:02:30 51°25.03 2°48.42 302.8 1.3 283 -999
2009-10-05 10:02:40 51°25.029 2°48.417 302.8 1.3 283 -999
2009-10-05 10:02:50 51°25.03 2°48.416 302.8 1.3 283 -999
2009-10-05 10:03:00 51°25.03 2°48.414 290.3 0.5 306 -999
2009-10-05 10:03:10 51°25.03 2°48.412 290.3 0.5 306 -999
2009-10-05 10:03:20 51°25.03 2°48.41 290.3 0.5 306 -999
2009-10-05 10:03:30 51°25.031 2°48.408 290.3 0.5 306 -999
2009-10-05 10:03:40 51°25.031 2°48.407 290.3 0.5 306 -999
2009-10-05 10:03:50 51°25.031 2°48.405 290.3 0.5 306 -999
2009-10-05 10:04:00 51°25.031 2°48.403 299.6 0.5 258 -999
2009-10-05 10:04:10 51°25.031 2°48.402 299.6 0.5 258 -999
2009-10-05 10:04:20 51°25.031 2°48.401 299.6 0.5 258 -999
2009-10-05 10:04:30 51°25.031 2°48.399 299.6 0.5 258 -999
2009-10-05 10:04:40 51°25.031 2°48.398 299.6 0.5 258 -999
2009-10-05 10:04:50 51°25.031 2°48.397 299.6 0.5 258 -999
2009-10-05 10:05:00 51°25.031 2°48.395 304.6 0.29 245 -999
2009-10-05 10:05:10 51°25.03 2°48.394 304.6 0.29 245 -999
2009-10-05 10:05:20 51°25.03 2°48.393 304.6 0.29 245 -999
2009-10-05 10:05:30 51°25.03 2°48.392 304.6 0.29 245 -999
2009-10-05 10:05:40 51°25.03 2°48.39 304.6 0.29 245 -999
2009-10-05 10:05:50 51°25.03 2°48.389 304.6 0.29 245 -999
2009-10-05 10:06:00 51°25.03 2°48.388 307.6 0.2 273 -999
2009-10-05 10:06:10 51°25.03 2°48.387 307.6 0.2 273 -999
2009-10-05 10:06:20 51°25.03 2°48.386 307.6 0.2 273 -999
2009-10-05 10:06:30 51°25.03 2°48.384 307.6 0.2 273 -999
2009-10-05 10:06:40 51°25.03 2°48.383 307.6 0.2 273 -999
2009-10-05 10:06:50 51°25.03 2°48.382 307.6 0.2 273 -999
2009-10-05 10:07:00 51°25.03 2°48.38 308.3 0.4 261 -999
2009-10-05 10:07:10 51°25.029 2°48.379 308.3 0.4 261 -999
2009-10-05 10:07:20 51°25.029 2°48.378 308.3 0.4 261 -999
2009-10-05 10:07:30 51°25.029 2°48.376 308.3 0.4 261 -999
2009-10-05 10:07:40 51°25.029 2°48.375 308.3 0.4 261 -999
2009-10-05 10:07:50 51°25.029 2°48.373 308.3 0.4 261 -999
2009-10-05 10:08:00 51°25.029 2°48.372 307.3 0.5 265 -999
2009-10-05 10:08:10 51°25.03 2°48.37 307.3 0.5 265 -999
2009-10-05 10:08:20 51°25.031 2°48.366 307.3 0.5 265 -999
2009-10-05 10:08:30 51°25.032 2°48.361 307.3 0.5 265 -999
2009-10-05 10:08:40 51°25.035 2°48.354 307.3 0.5 265 -999
2009-10-05 10:08:50 51°25.039 2°48.346 307.3 0.5 265 -999
2009-10-05 10:09:00 51°25.044 2°48.336 321.6 2.89 311 -999
2009-10-05 10:09:10 51°25.05 2°48.326 321.6 2.89 311 -999
2009-10-05 10:09:20 51°25.061 2°48.319 321.6 2.89 311 -999
2009-10-05 10:09:30 51°25.073 2°48.314 321.6 2.89 311 -999
2009-10-05 10:09:40 51°25.088 2°48.314 321.6 2.89 311 -999
2009-10-05 10:09:50 51°25.105 2°48.32 321.6 2.89 311 -999
2009-10-05 10:10:00 51°25.124 2°48.331 25.1 7.29 19 -999
2009-10-05 10:10:10 51°25.143 2°48.346 25.1 7.29 19 -999
2009-10-05 10:10:20 51°25.164 2°48.366 25.1 7.29 19 -999
2009-10-05 10:10:30 51°25.185 2°48.388 25.1 7.29 19 -999
2009-10-05 10:10:40 51°25.206 2°48.411 25.1 7.29 19 -999
2009-10-05 10:10:50 51°25.227 2°48.437 25.1 7.29 19 -999
2009-10-05 10:11:00 51°25.248 2°48.462 39.7 9.5 36 -999
2009-10-05 10:11:10 51°25.27 2°48.487 39.7 9.5 36 -999
2009-10-05 10:11:20 51°25.291 2°48.513 39.7 9.5 36 -999
2009-10-05 10:11:30 51°25.312 2°48.54 39.7 9.5 36 -999
2009-10-05 10:11:40 51°25.333 2°48.566 39.7 9.5 36 -999
2009-10-05 10:11:50 51°25.355 2°48.592 39.7 9.5 36 -999
2009-10-05 10:12:00 51°25.377 2°48.619 39.3 9.8 37 -999
2009-10-05 10:12:10 51°25.398 2°48.645 39.3 9.8 37 -999